createdAt,value
2018-04-07T00:01:03.720Z,50.10
2018-04-07T00:03:06.901Z,50.10
2018-04-07T00:05:10.837Z,50.00
2018-04-07T00:07:14.771Z,50.00
2018-04-07T00:09:17.946Z,50.00
2018-04-07T00:11:21.141Z,50.20
2018-04-07T00:13:25.825Z,50.30
2018-04-07T00:15:28.981Z,50.30
2018-04-07T00:17:32.124Z,50.20
2018-04-07T00:19:36.063Z,50.20
2018-04-07T00:21:39.973Z,50.40
2018-04-07T00:23:43.884Z,50.60
2018-04-07T00:25:47.066Z,51.20
2018-04-07T00:27:50.208Z,50.30
2018-04-07T00:29:53.385Z,50.00
2018-04-07T00:31:56.524Z,50.00
2018-04-07T00:33:59.709Z,50.00
2018-04-07T00:36:02.884Z,50.40
2018-04-07T00:38:06.045Z,50.20
2018-04-07T00:40:09.256Z,50.10
2018-04-07T00:42:12.442Z,50.10
2018-04-07T00:44:16.404Z,50.40
2018-04-07T00:46:20.348Z,49.90
2018-04-07T00:48:23.528Z,49.80
2018-04-07T00:50:26.676Z,49.80
2018-04-07T00:52:47.722Z,50.00
2018-04-07T00:54:50.912Z,50.10
2018-04-07T00:56:54.103Z,50.10
2018-04-07T00:58:57.249Z,50.00
2018-04-07T01:01:00.396Z,50.10
2018-04-07T01:03:04.333Z,49.30
2018-04-07T01:05:07.515Z,49.20
2018-04-07T01:07:10.693Z,49.60
2018-04-07T01:09:13.858Z,49.60
2018-04-07T01:11:17.037Z,50.00
2018-04-07T01:13:20.194Z,49.70
2018-04-07T01:15:23.369Z,49.30
2018-04-07T01:17:27.280Z,49.20
2018-04-07T01:19:30.456Z,49.80
2018-04-07T01:21:33.685Z,49.10
2018-04-07T01:23:36.834Z,48.80
2018-04-07T01:25:39.989Z,48.80
2018-04-07T01:27:43.178Z,48.10
2018-04-07T01:29:46.473Z,47.80
2018-04-07T01:31:50.744Z,47.90
2018-04-07T01:33:53.898Z,48.00
2018-04-07T01:35:58.432Z,48.00
2018-04-07T01:38:03.747Z,48.00
2018-04-07T01:40:08.345Z,48.30
2018-04-07T01:42:12.064Z,48.30
2018-04-07T01:44:16.481Z,48.30
2018-04-07T01:46:20.742Z,48.30
2018-04-07T01:48:25.104Z,48.20
2018-04-07T01:50:29.391Z,48.40
2018-04-07T01:52:34.646Z,48.70
2018-04-07T01:54:39.453Z,48.80
2018-04-07T01:56:45.512Z,48.70
2018-04-07T01:58:49.431Z,48.70
2018-04-07T02:00:52.648Z,48.70
2018-04-07T02:02:55.831Z,48.40
2018-04-07T02:04:58.988Z,48.20
2018-04-07T02:07:02.182Z,48.30
2018-04-07T02:09:06.133Z,48.90
2018-04-07T02:11:10.077Z,48.90
2018-04-07T02:13:13.290Z,48.90
2018-04-07T02:15:16.444Z,49.00
2018-04-07T02:17:19.618Z,49.00
2018-04-07T02:19:22.797Z,49.00
2018-04-07T02:21:34.223Z,49.10
2018-04-07T02:23:37.404Z,49.10
2018-04-07T02:25:41.482Z,49.20
2018-04-07T02:27:44.679Z,49.30
2018-04-07T02:29:47.821Z,49.30
2018-04-07T02:31:50.970Z,49.50
2018-04-07T02:33:54.160Z,49.50
2018-04-07T02:35:58.091Z,49.40
2018-04-07T02:38:02.034Z,49.60
2018-04-07T02:40:05.224Z,49.60
2018-04-07T02:42:09.188Z,50.10
2018-04-07T02:44:12.974Z,50.10
2018-04-07T02:48:26.456Z,50.10
2018-04-07T02:50:30.390Z,50.30
2018-04-07T02:52:33.534Z,50.30
2018-04-07T02:54:36.692Z,50.40
2018-04-07T02:56:40.633Z,50.60
2018-04-07T02:58:43.802Z,50.60
2018-04-07T03:00:46.985Z,50.60
2018-04-07T03:02:50.159Z,50.70
2018-04-07T03:04:53.602Z,50.80
2018-04-07T03:06:56.793Z,51.00
2018-04-07T03:08:59.966Z,51.00
2018-04-07T03:11:03.900Z,51.20
2018-04-07T03:13:07.840Z,51.20
2018-04-07T03:15:10.983Z,51.30
2018-04-07T03:17:14.148Z,51.20
2018-04-07T03:19:17.290Z,51.20
2018-04-07T03:21:20.457Z,51.30
2018-04-07T03:23:24.393Z,51.50
2018-04-07T03:25:27.540Z,51.50
2018-04-07T03:27:30.697Z,51.50
2018-04-07T03:29:35.021Z,52.70
2018-04-07T03:31:38.953Z,52.80
2018-04-07T03:33:42.867Z,52.70
2018-04-07T03:35:46.776Z,52.80
2018-04-07T03:37:49.959Z,52.70
2018-04-07T03:39:53.102Z,52.70
2018-04-07T03:41:56.278Z,52.70
2018-04-07T03:44:00.315Z,52.70
2018-04-07T03:46:06.640Z,52.80
2018-04-07T03:48:10.409Z,53.00
2018-04-07T03:50:14.697Z,53.10
2018-04-07T03:52:18.575Z,53.20
2018-04-07T03:54:22.241Z,53.20
2018-04-07T03:56:26.170Z,53.30
2018-04-07T03:58:29.340Z,53.30
2018-04-07T04:00:32.614Z,53.30
2018-04-07T04:02:36.290Z,53.40
2018-04-07T04:04:40.444Z,53.60
2018-04-07T04:06:44.721Z,53.50
2018-04-07T04:08:48.878Z,53.50
2018-04-07T04:10:53.234Z,54.30
2018-04-07T04:12:58.287Z,53.70
2018-04-07T04:15:01.549Z,53.70
2018-04-07T04:17:04.884Z,53.70
2018-04-07T04:19:09.283Z,53.70
2018-04-07T04:21:15.293Z,53.80
2018-04-07T04:23:20.277Z,53.80
2018-04-07T04:25:23.536Z,53.90
2018-04-07T04:27:26.717Z,53.90
2018-04-07T04:29:30.193Z,53.90
2018-04-07T04:31:34.317Z,54.10
2018-04-07T04:33:37.556Z,54.10
2018-04-07T04:35:40.724Z,54.10
2018-04-07T04:37:43.870Z,54.20
2018-04-07T04:39:48.931Z,54.30
2018-04-07T04:41:53.512Z,54.50
2018-04-07T04:43:56.775Z,54.40
2018-04-07T04:45:59.962Z,54.50
2018-04-07T04:48:03.130Z,54.70
2018-04-07T04:50:06.316Z,54.60
2018-04-07T04:52:09.462Z,54.80
2018-04-07T04:54:12.633Z,54.80
2018-04-07T04:56:17.681Z,55.00
2018-04-07T04:58:20.836Z,55.00
2018-04-07T05:00:24.765Z,55.20
2018-04-07T05:02:28.717Z,55.30
2018-04-07T05:04:33.216Z,55.30
2018-04-07T05:06:38.088Z,55.30
2018-04-07T05:08:41.245Z,55.50
2018-04-07T05:10:44.391Z,55.70
2018-04-07T05:12:48.332Z,55.80
2018-04-07T05:14:51.502Z,55.70
2018-04-07T05:16:54.692Z,55.70
2018-04-07T05:18:57.866Z,55.70
2018-04-07T05:21:01.019Z,55.90
2018-04-07T05:23:05.404Z,56.00
2018-04-07T05:25:08.997Z,56.00
2018-04-07T05:27:13.707Z,56.20
2018-04-07T05:29:18.072Z,56.20
2018-04-07T05:31:22.035Z,56.30
2018-04-07T05:33:25.437Z,56.30
2018-04-07T05:35:28.602Z,56.20
2018-04-07T05:37:31.781Z,56.20
2018-04-07T05:39:34.966Z,56.40
2018-04-07T05:41:38.142Z,56.60
2018-04-07T05:43:41.330Z,56.60
2018-04-07T05:45:44.750Z,56.50
2018-04-07T05:47:47.921Z,56.50
2018-04-07T05:49:51.101Z,56.50
2018-04-07T05:51:56.757Z,56.70
2018-04-07T05:54:02.623Z,56.70
2018-04-07T05:56:05.934Z,56.70
2018-04-07T05:58:10.181Z,56.70
2018-04-07T06:00:13.379Z,56.70
2018-04-07T06:02:18.440Z,57.00
2018-04-07T06:04:21.636Z,57.00
2018-04-07T06:06:25.572Z,57.20
2018-04-07T06:08:28.753Z,57.20
2018-04-07T06:10:35.729Z,57.30
2018-04-07T06:12:38.901Z,57.40
2018-04-07T06:14:42.068Z,57.40
2018-04-07T06:16:45.248Z,57.60
2018-04-07T06:18:48.418Z,57.70
2018-04-07T06:20:51.608Z,57.70
2018-04-07T06:22:55.616Z,58.20
2018-04-07T06:24:59.198Z,58.20
2018-04-07T06:27:02.399Z,58.60
2018-04-07T06:29:05.574Z,58.20
2018-04-07T06:31:09.597Z,58.30
2018-04-07T06:33:13.585Z,58.30
2018-04-07T06:35:16.760Z,58.30
2018-04-07T06:37:19.938Z,58.30
2018-04-07T06:39:23.872Z,58.40
2018-04-07T06:41:27.048Z,58.40
2018-04-07T06:43:30.228Z,58.50
2018-04-07T06:45:34.576Z,58.50
2018-04-07T06:47:37.742Z,58.50
2018-04-07T06:49:40.904Z,58.30
2018-04-07T06:51:44.072Z,58.40
2018-04-07T06:53:47.509Z,58.30
2018-04-07T06:55:50.684Z,58.50
2018-04-07T06:57:54.192Z,58.70
2018-04-07T06:59:57.361Z,58.80
2018-04-07T07:02:00.714Z,58.80
2018-04-07T07:04:03.921Z,58.80
2018-04-07T07:06:07.135Z,58.80
2018-04-07T07:08:10.324Z,58.90
2018-04-07T07:10:14.261Z,59.30
2018-04-07T07:12:17.436Z,58.80
2018-04-07T07:14:20.600Z,58.80
2018-04-07T07:16:23.789Z,57.80
2018-04-07T07:18:26.964Z,57.90
2018-04-07T07:20:30.140Z,57.90
2018-04-07T07:22:33.430Z,57.70
2018-04-07T07:24:36.617Z,57.90
2018-04-07T07:26:39.793Z,57.90
2018-04-07T07:28:43.470Z,57.90
2018-04-07T07:30:46.710Z,57.70
2018-04-07T07:32:50.009Z,57.90
2018-04-07T07:34:53.209Z,57.70
2018-04-07T07:36:56.433Z,57.20
2018-04-07T07:38:59.683Z,57.00
2018-04-07T07:41:03.565Z,57.10
2018-04-07T07:43:06.848Z,57.00
2018-04-07T07:45:10.041Z,56.20
2018-04-07T07:47:13.298Z,55.50
2018-04-07T07:49:16.575Z,55.20
2018-04-07T07:51:19.793Z,55.00
2018-04-07T07:53:27.759Z,53.90
2018-04-07T07:55:34.252Z,54.50
2018-04-07T07:57:38.217Z,53.80
2018-04-07T07:59:41.440Z,53.80
2018-04-07T08:01:44.676Z,53.40
2018-04-07T08:03:47.857Z,53.70
2018-04-07T08:05:51.043Z,53.40
2018-04-07T08:07:54.825Z,52.20
2018-04-07T08:09:59.892Z,51.30
2018-04-07T08:12:04.616Z,51.50
2018-04-07T08:14:09.233Z,51.40
2018-04-07T08:16:12.524Z,50.70
2018-04-07T08:18:15.712Z,50.10
2018-04-07T08:20:18.907Z,49.40
2018-04-07T08:22:22.936Z,48.30
2018-04-07T08:24:26.152Z,48.20
2018-04-07T08:26:29.366Z,47.90
2018-04-07T08:28:32.633Z,47.30
2018-04-07T08:30:36.630Z,45.80
2018-04-07T08:32:41.072Z,45.10
2018-04-07T08:34:45.242Z,45.60
2018-04-07T08:36:49.210Z,44.20
2018-04-07T08:38:54.462Z,44.10
2018-04-07T08:40:58.022Z,43.50
2018-04-07T08:43:01.337Z,43.40
2018-04-07T08:45:05.521Z,42.80
2018-04-07T08:47:09.325Z,42.40
2018-04-07T08:49:14.932Z,41.90
2018-04-07T08:51:18.328Z,41.70
2018-04-07T08:53:21.551Z,41.20
2018-04-07T08:55:24.823Z,41.00
2018-04-07T08:57:28.821Z,40.80
2018-04-07T08:59:32.894Z,40.50
2018-04-07T09:01:36.083Z,40.50
2018-04-07T09:03:40.199Z,40.50
2018-04-07T09:05:45.727Z,39.90
2018-04-07T09:07:49.050Z,39.60
2018-04-07T09:09:53.004Z,39.30
2018-04-07T09:11:57.457Z,38.80
2018-04-07T09:14:00.635Z,38.60
2018-04-07T09:16:04.596Z,38.20
2018-04-07T09:18:07.786Z,37.90
2018-04-07T09:20:11.720Z,38.20
2018-04-07T09:22:14.893Z,38.10
2018-04-07T09:24:18.072Z,37.50
2018-04-07T09:26:21.256Z,37.00
2018-04-07T09:28:24.452Z,36.50
2018-04-07T09:30:27.630Z,36.70
2018-04-07T09:32:31.841Z,36.40
2018-04-07T09:34:35.709Z,36.20
2018-04-07T09:36:39.654Z,37.20
2018-04-07T09:38:44.485Z,36.40
2018-04-07T09:40:48.685Z,35.60
2018-04-07T09:42:53.980Z,35.10
2018-04-07T09:44:59.590Z,35.10
2018-04-07T09:47:05.228Z,35.00
2018-04-07T09:49:09.884Z,34.80
2018-04-07T09:51:14.836Z,34.70
2018-04-07T09:53:18.044Z,34.70
2018-04-07T09:55:21.509Z,34.20
2018-04-07T09:57:25.448Z,33.70
2018-04-07T09:59:28.640Z,33.60
2018-04-07T10:01:32.581Z,33.30
2018-04-07T10:03:35.753Z,33.10
2018-04-07T10:05:38.937Z,33.50
2018-04-07T10:07:42.120Z,32.70
2018-04-07T10:09:45.304Z,32.60
2018-04-07T10:11:49.270Z,32.50
2018-04-07T10:13:52.464Z,32.30
2018-04-07T10:15:56.325Z,31.70
2018-04-07T10:17:59.495Z,31.40
2018-04-07T10:20:02.696Z,31.70
2018-04-07T10:22:05.937Z,31.10
2018-04-07T10:24:09.097Z,30.80
2018-04-07T10:26:13.070Z,30.90
2018-04-07T10:28:18.016Z,31.10
2018-04-07T10:30:21.197Z,30.90
2018-04-07T10:32:24.502Z,30.90
2018-04-07T10:34:27.880Z,30.80
2018-04-07T10:36:31.075Z,31.10
2018-04-07T10:38:34.270Z,30.50
2018-04-07T10:40:37.595Z,30.30
2018-04-07T10:42:40.775Z,30.10
2018-04-07T10:44:43.954Z,30.00
2018-04-07T10:46:47.908Z,29.40
2018-04-07T10:48:51.409Z,29.40
2018-04-07T10:50:54.918Z,29.50
2018-04-07T10:52:58.376Z,29.10
2018-04-07T10:55:01.556Z,28.90
2018-04-07T10:57:04.753Z,29.40
2018-04-07T10:59:07.925Z,29.10
2018-04-07T11:01:11.101Z,29.10
2018-04-07T11:03:14.330Z,28.80
2018-04-07T11:05:17.887Z,28.90
2018-04-07T11:07:21.848Z,28.50
2018-04-07T11:09:25.051Z,28.40
2018-04-07T11:11:28.263Z,28.70
2018-04-07T11:13:31.466Z,28.30
2018-04-07T11:15:34.641Z,28.40
2018-04-07T11:17:38.584Z,27.90
2018-04-07T11:19:41.767Z,27.80
2018-04-07T11:21:45.917Z,27.50
2018-04-07T11:23:49.106Z,27.30
2018-04-07T11:25:53.052Z,27.20
2018-04-07T11:27:56.233Z,27.10
2018-04-07T11:29:59.424Z,27.20
2018-04-07T11:32:02.628Z,26.90
2018-04-07T11:34:05.838Z,27.50
2018-04-07T11:36:09.048Z,27.30
2018-04-07T11:38:12.231Z,27.50
2018-04-07T11:40:15.437Z,27.20
2018-04-07T11:42:18.623Z,27.10
2018-04-07T11:44:21.807Z,26.70
2018-04-07T11:46:25.804Z,27.00
2018-04-07T11:48:29.003Z,26.40
2018-04-07T11:50:32.188Z,26.40
2018-04-07T11:52:36.185Z,26.00
2018-04-07T11:54:40.146Z,26.20
2018-04-07T11:56:43.461Z,26.10
2018-04-07T11:58:46.712Z,26.40
2018-04-07T12:00:50.626Z,26.20
2018-04-07T12:02:54.051Z,26.50
2018-04-07T12:04:57.360Z,25.80
2018-04-07T12:07:00.701Z,25.40
2018-04-07T12:09:04.777Z,24.60
2018-04-07T12:11:08.285Z,24.50
2018-04-07T12:13:11.533Z,24.60
2018-04-07T12:15:15.066Z,24.50
2018-04-07T12:17:19.174Z,24.50
2018-04-07T12:19:22.365Z,24.50
2018-04-07T12:21:25.541Z,24.50
2018-04-07T12:23:29.501Z,24.60
2018-04-07T12:25:32.784Z,24.70
2018-04-07T12:27:36.165Z,24.70
2018-04-07T12:29:40.233Z,24.60
2018-04-07T12:31:43.409Z,24.50
2018-04-07T12:33:47.422Z,24.50
2018-04-07T12:35:50.618Z,24.30
2018-04-07T12:37:53.848Z,24.70
2018-04-07T12:39:57.901Z,24.30
2018-04-07T12:42:01.237Z,24.20
2018-04-07T12:44:04.448Z,24.10
2018-04-07T12:46:08.609Z,24.40
2018-04-07T12:48:12.107Z,24.10
2018-04-07T12:50:15.292Z,23.90
2018-04-07T12:52:19.384Z,24.20
2018-04-07T12:54:23.393Z,23.30
2018-04-07T12:56:26.585Z,23.20
2018-04-07T12:58:30.048Z,23.60
2018-04-07T13:00:33.447Z,23.50
2018-04-07T13:02:36.655Z,23.50
2018-04-07T13:04:41.248Z,23.60
2018-04-07T13:06:44.595Z,23.40
2018-04-07T13:08:48.618Z,23.50
2018-04-07T13:10:52.306Z,23.40
2018-04-07T13:12:55.505Z,23.50
2018-04-07T13:14:59.122Z,23.70
2018-04-07T13:17:02.352Z,23.40
2018-04-07T13:19:05.549Z,23.50
2018-04-07T13:21:09.320Z,23.20
2018-04-07T13:23:12.636Z,23.60
2018-04-07T13:25:16.739Z,23.30
2018-04-07T13:27:19.934Z,23.30
2018-04-07T13:29:23.127Z,23.30
2018-04-07T13:31:26.495Z,22.60
2018-04-07T13:33:38.494Z,22.90
2018-04-07T13:35:34.272Z,22.50
2018-04-07T13:37:37.556Z,22.00
2018-04-07T13:39:41.530Z,21.30
2018-04-07T13:41:45.188Z,21.30
2018-04-07T13:43:49.141Z,21.70
2018-04-07T13:45:52.553Z,21.40
2018-04-07T13:47:55.852Z,21.70
2018-04-07T13:50:00.266Z,21.70
2018-04-07T13:52:03.454Z,21.70
2018-04-07T13:54:06.792Z,21.80
2018-04-07T13:56:10.032Z,21.90
2018-04-07T13:58:13.332Z,22.30
2018-04-07T14:00:16.760Z,22.30
2018-04-07T14:02:19.998Z,22.30
2018-04-07T14:04:23.203Z,22.40
2018-04-07T14:06:28.058Z,22.40
2018-04-07T14:08:33.230Z,22.00
2018-04-07T14:10:37.668Z,21.70
2018-04-07T14:12:40.849Z,21.50
2018-04-07T14:14:44.032Z,21.60
2018-04-07T14:16:47.253Z,21.30
2018-04-07T14:18:50.464Z,21.40
2018-04-07T14:20:53.676Z,21.50
2018-04-07T14:22:57.975Z,21.50
2018-04-07T14:25:01.946Z,21.10
2018-04-07T14:27:05.128Z,21.10
2018-04-07T14:29:08.315Z,20.90
2018-04-07T14:31:12.503Z,21.00
2018-04-07T14:33:15.728Z,20.90
2018-04-07T14:35:19.810Z,20.70
2018-04-07T14:37:23.814Z,20.70
2018-04-07T14:39:27.771Z,20.70
2018-04-07T14:41:31.013Z,20.70
2018-04-07T14:43:35.368Z,20.90
2018-04-07T14:45:38.556Z,20.90
2018-04-07T14:47:42.581Z,21.10
2018-04-07T14:49:46.533Z,21.30
2018-04-07T14:51:49.713Z,21.20
2018-04-07T14:53:52.896Z,21.10
2018-04-07T14:55:56.217Z,21.10
2018-04-07T14:57:59.704Z,21.00
2018-04-07T15:00:02.994Z,21.20
2018-04-07T15:02:06.948Z,21.10
2018-04-07T15:04:10.153Z,21.00
2018-04-07T15:06:13.351Z,21.00
2018-04-07T15:08:17.296Z,20.90
2018-04-07T15:10:20.466Z,20.90
2018-04-07T15:12:23.648Z,20.90
2018-04-07T15:14:26.857Z,20.70
2018-04-07T15:16:30.056Z,20.80
2018-04-07T15:18:33.263Z,21.00
2018-04-07T15:20:36.437Z,21.10
2018-04-07T15:22:40.229Z,21.20
2018-04-07T15:24:43.730Z,21.50
2018-04-07T15:26:46.919Z,21.30
2018-04-07T15:28:50.093Z,21.40
2018-04-07T15:30:53.292Z,21.30
2018-04-07T15:32:57.251Z,21.30
2018-04-07T15:35:00.459Z,21.30
2018-04-07T15:37:04.091Z,21.40
2018-04-07T15:39:07.290Z,21.50
2018-04-07T15:41:10.570Z,21.30
2018-04-07T15:43:14.541Z,21.70
2018-04-07T15:45:17.723Z,21.70
2018-04-07T15:47:20.908Z,21.80
2018-04-07T15:49:24.473Z,21.80
2018-04-07T15:51:27.671Z,22.10
2018-04-07T15:53:30.852Z,22.10
2018-04-07T15:55:34.048Z,22.10
2018-04-07T15:57:38.000Z,22.50
2018-04-07T15:59:41.226Z,22.50
2018-04-07T16:01:44.765Z,22.50
2018-04-07T16:03:47.947Z,22.70
2018-04-07T16:05:51.125Z,22.60
2018-04-07T16:07:54.391Z,22.90
2018-04-07T16:09:57.589Z,23.00
2018-04-07T16:12:00.921Z,23.10
2018-04-07T16:14:04.120Z,23.30
2018-04-07T16:16:08.219Z,23.50
2018-04-07T16:18:11.806Z,23.70
2018-04-07T16:20:15.827Z,23.60
2018-04-07T16:22:20.606Z,24.50
2018-04-07T16:24:23.858Z,24.50
2018-04-07T16:26:27.124Z,24.90
2018-04-07T16:28:30.425Z,24.80
2018-04-07T16:30:33.674Z,25.30
2018-04-07T16:32:37.509Z,25.00
2018-04-07T16:34:42.234Z,25.00
2018-04-07T16:36:45.441Z,25.00
2018-04-07T16:38:48.650Z,25.30
2018-04-07T16:40:51.849Z,25.80
2018-04-07T16:42:55.040Z,25.70
2018-04-07T16:44:58.700Z,26.00
2018-04-07T16:47:01.884Z,26.10
2018-04-07T16:49:05.108Z,25.80
2018-04-07T16:51:08.303Z,25.90
2018-04-07T16:53:11.481Z,26.40
2018-04-07T16:55:15.440Z,27.20
2018-04-07T16:57:18.622Z,27.20
2018-04-07T16:59:21.818Z,27.60
2018-04-07T17:01:25.005Z,28.00
2018-04-07T17:03:28.464Z,28.80
2018-04-07T17:05:31.776Z,29.50
2018-04-07T17:07:36.076Z,30.00
2018-04-07T17:09:41.515Z,30.60
2018-04-07T17:11:47.117Z,31.30
2018-04-07T17:13:51.638Z,31.40
2018-04-07T17:15:57.037Z,32.00
2018-04-07T17:18:01.493Z,31.70
2018-04-07T17:20:06.895Z,32.40
2018-04-07T17:22:12.296Z,32.80
2018-04-07T17:24:16.275Z,32.80
2018-04-07T17:26:21.323Z,33.20
2018-04-07T17:28:24.831Z,33.40
2018-04-07T17:30:29.009Z,33.70
2018-04-07T17:32:32.214Z,33.80
2018-04-07T17:34:35.405Z,33.80
2018-04-07T17:36:39.353Z,34.90
2018-04-07T17:38:42.554Z,34.90
2018-04-07T17:40:45.733Z,35.10
2018-04-07T17:42:49.634Z,35.20
2018-04-07T17:44:53.035Z,35.80
2018-04-07T17:46:58.220Z,36.00
2018-04-07T17:49:06.335Z,36.20
2018-04-07T17:51:08.963Z,36.10
2018-04-07T17:53:12.904Z,36.80
2018-04-07T17:55:16.330Z,36.90
2018-04-07T17:57:19.533Z,36.80
2018-04-07T17:59:23.490Z,36.80
2018-04-07T18:01:26.790Z,37.10
2018-04-07T18:03:29.999Z,37.30
2018-04-07T18:05:33.325Z,37.60
2018-04-07T18:07:36.530Z,38.00
2018-04-07T18:09:39.989Z,38.10
2018-04-07T18:11:43.889Z,38.50
2018-04-07T18:13:47.268Z,38.50
2018-04-07T18:15:50.635Z,38.40
2018-04-07T18:17:54.592Z,39.20
2018-04-07T18:19:57.797Z,39.20
2018-04-07T18:22:01.026Z,39.60
2018-04-07T18:24:04.221Z,39.70
2018-04-07T18:26:08.079Z,40.00
2018-04-07T18:28:11.561Z,40.20
2018-04-07T18:30:15.443Z,40.40
2018-04-07T18:32:19.422Z,40.80
2018-04-07T18:34:22.602Z,40.80
2018-04-07T18:36:25.814Z,40.90
2018-04-07T18:38:29.020Z,40.90
2018-04-07T18:40:33.514Z,41.40
2018-04-07T18:42:36.700Z,41.40
2018-04-07T18:44:39.876Z,41.10
2018-04-07T18:46:43.073Z,41.30
2018-04-07T18:48:47.021Z,41.70
2018-04-07T18:50:50.207Z,41.80
2018-04-07T18:52:54.169Z,42.40
2018-04-07T18:55:03.378Z,42.50
2018-04-07T18:57:08.039Z,42.60
2018-04-07T18:59:12.754Z,42.70
2018-04-07T19:01:21.491Z,43.10
2018-04-07T19:03:27.089Z,43.00
2018-04-07T19:05:31.757Z,43.20
2018-04-07T19:07:35.035Z,43.30
2018-04-07T19:09:38.228Z,43.70
2018-04-07T19:11:42.257Z,43.90
2018-04-07T19:13:45.459Z,44.00
2018-04-07T19:15:49.923Z,43.90
2018-04-07T19:17:53.157Z,44.10
2018-04-07T19:19:56.419Z,44.30
2018-04-07T19:22:00.385Z,44.50
2018-04-07T19:24:03.781Z,44.50
2018-04-07T19:26:07.464Z,44.60
2018-04-07T19:28:11.421Z,45.00
2018-04-07T19:30:14.625Z,44.80
2018-04-07T19:32:17.807Z,44.90
2018-04-07T19:34:20.997Z,45.00
2018-04-07T19:36:24.207Z,44.70
2018-04-07T19:38:27.402Z,45.40
2018-04-07T19:40:30.880Z,45.60
2018-04-07T19:42:34.066Z,45.60
2018-04-07T19:44:38.393Z,45.90
2018-04-07T19:46:41.696Z,45.90
2018-04-07T19:48:44.875Z,46.00
2018-04-07T19:50:48.073Z,46.10
2018-04-07T19:52:51.448Z,46.20
2018-04-07T19:54:54.644Z,46.40
2018-04-07T19:56:58.736Z,46.50
2018-04-07T19:59:02.760Z,46.50
2018-04-07T20:01:05.941Z,46.30
2018-04-07T20:03:09.171Z,46.60
2018-04-07T20:05:13.203Z,46.70
2018-04-07T20:07:16.421Z,46.80
2018-04-07T20:09:19.600Z,46.90
2018-04-07T20:11:23.525Z,47.10
2018-04-07T20:13:26.867Z,47.30
2018-04-07T20:15:30.958Z,47.20
2018-04-07T20:17:34.148Z,47.50
2018-04-07T20:19:38.076Z,47.60
2018-04-07T20:21:41.997Z,47.60
2018-04-07T20:23:46.104Z,47.80
2018-04-07T20:25:50.065Z,47.80
2018-04-07T20:27:53.229Z,47.90
2018-04-07T20:29:56.377Z,47.80
2018-04-07T20:32:00.690Z,48.00
2018-04-07T20:34:03.803Z,48.00
2018-04-07T20:36:07.741Z,48.20
2018-04-07T20:38:12.816Z,48.30
2018-04-07T20:40:15.993Z,48.30
2018-04-07T20:42:28.060Z,48.40
2018-04-07T20:44:34.294Z,48.40
2018-04-07T20:46:38.240Z,48.50
2018-04-07T20:48:41.431Z,48.50
2018-04-07T20:50:44.608Z,48.70
2018-04-07T20:52:48.879Z,48.80
2018-04-07T20:54:52.642Z,48.90
2018-04-07T20:56:55.859Z,48.80
2018-04-07T20:58:59.103Z,48.90
2018-04-07T21:01:02.311Z,48.90
2018-04-07T21:03:09.200Z,48.80
2018-04-07T21:05:12.878Z,48.90
2018-04-07T21:07:16.986Z,48.90
2018-04-07T21:09:20.212Z,49.00
2018-04-07T21:11:23.352Z,49.70
2018-04-07T21:13:26.911Z,49.10
2018-04-07T21:15:30.303Z,49.40
2018-04-07T21:17:34.265Z,49.20
2018-04-07T21:19:38.117Z,49.30
2018-04-07T21:21:41.436Z,49.40
2018-04-07T21:23:46.308Z,49.40
2018-04-07T21:25:51.314Z,49.40
2018-04-07T21:30:10.289Z,49.90
2018-04-07T21:32:13.651Z,49.60
2018-04-07T21:34:16.832Z,49.80
2018-04-07T21:36:20.053Z,49.90
2018-04-07T21:38:23.546Z,49.80
2018-04-07T21:40:26.714Z,49.90
2018-04-07T21:42:29.912Z,50.10
2018-04-07T21:44:34.313Z,50.20
2018-04-07T21:46:37.495Z,50.20
2018-04-07T21:48:41.593Z,51.10
2018-04-07T21:50:44.861Z,50.40
2018-04-07T21:52:48.019Z,50.50
2018-04-07T21:54:51.165Z,50.50
2018-04-07T21:56:55.641Z,50.70
2018-04-07T21:58:58.796Z,50.80
2018-04-07T22:01:02.758Z,51.00
2018-04-07T22:03:05.906Z,51.00
2018-04-07T22:05:09.060Z,51.00
2018-04-07T22:07:12.744Z,51.10
2018-04-07T22:09:15.893Z,51.20
2018-04-07T22:11:19.092Z,51.10
2018-04-07T22:13:22.244Z,51.30
2018-04-07T22:15:25.421Z,51.40
2018-04-07T22:17:28.576Z,51.50
2018-04-07T22:19:31.748Z,51.60
2018-04-07T22:21:34.893Z,51.70
2018-04-07T22:23:38.056Z,51.80
2018-04-07T22:25:41.228Z,51.90
2018-04-07T22:27:45.155Z,52.10
2018-04-07T22:29:49.098Z,52.10
2018-04-07T22:31:52.249Z,52.10
2018-04-07T22:33:55.433Z,52.10
2018-04-07T22:35:58.594Z,52.20
2018-04-07T22:38:02.540Z,52.40
2018-04-07T22:40:05.715Z,52.40
2018-04-07T22:42:08.869Z,52.50
2018-04-07T22:44:12.042Z,52.60
2018-04-07T22:46:15.213Z,52.60
2018-04-07T22:48:18.405Z,52.70
2018-04-07T22:50:21.551Z,52.80
2018-04-07T22:52:24.717Z,52.80
2018-04-07T22:54:27.892Z,53.00
2018-04-07T22:56:31.805Z,53.40
2018-04-07T22:58:34.952Z,53.30
2018-04-07T23:00:39.273Z,53.30
2018-04-07T23:02:42.433Z,53.30
2018-04-07T23:04:45.609Z,53.30
2018-04-07T23:06:48.772Z,53.50
2018-04-07T23:08:51.916Z,53.60
2018-04-07T23:10:55.092Z,53.80
2018-04-07T23:12:59.924Z,53.30
2018-04-07T23:15:03.105Z,53.90
2018-04-07T23:17:06.585Z,54.50
2018-04-07T23:19:09.729Z,54.00
2018-04-07T23:21:12.874Z,54.00
2018-04-07T23:23:16.820Z,54.10
2018-04-07T23:25:19.969Z,54.10
2018-04-07T23:27:23.125Z,54.20
2018-04-07T23:29:27.077Z,54.30
2018-04-07T23:31:30.253Z,54.30
2018-04-07T23:33:34.172Z,54.30
2018-04-07T23:35:37.361Z,54.30
2018-04-07T23:37:40.504Z,54.90
2018-04-07T23:39:44.743Z,54.40
2018-04-07T23:41:47.889Z,54.40
2018-04-07T23:43:51.050Z,54.60
2018-04-07T23:45:54.996Z,54.60
2018-04-07T23:47:58.168Z,54.50
2018-04-07T23:50:01.328Z,54.50
2018-04-07T23:52:04.516Z,54.60
2018-04-07T23:54:07.669Z,54.50
2018-04-07T23:56:10.852Z,54.50
2018-04-07T23:58:13.995Z,54.50
